Time;durP1;ratioP1;P1;durP2;ratioP2;P2;SDS_P1;SDS_P2;PMS_P1;PMS_P2;Temp;Humidity;BMP_temperature;BMP_pressure;BME280_temperature;BME280_humidity;BME280_pressure;Samples;Min_cycle;Max_cycle;Signal;HPM_P1;HPM_P2
2020/12/07 00:00:12;;;;;;;4.00;2.05;;;0.30;98.00;;;;;;5018675;28;20101;-73
2020/12/07 00:02:39;;;;;;;3.78;2.17;;;0.30;98.00;;;;;;5016041;28;20036;-73
2020/12/07 00:05:06;;;;;;;3.97;2.30;;;0.40;98.00;;;;;;5018562;28;20057;-73
2020/12/07 00:07:31;;;;;;;4.05;2.65;;;0.40;98.00;;;;;;5017868;28;20407;-73
2020/12/07 00:09:57;;;;;;;3.42;2.20;;;0.40;98.00;;;;;;5017273;28;20076;-73
2020/12/07 00:12:27;;;;;;;5.40;2.80;;;0.40;98.00;;;;;;5018006;28;20030;-73
2020/12/07 00:14:52;;;;;;;3.53;2.13;;;0.40;98.00;;;;;;5017989;28;20097;-73
2020/12/07 00:17:25;;;;;;;4.88;2.55;;;0.40;98.00;;;;;;5015503;28;20117;-72
2020/12/07 00:19:52;;;;;;;3.27;1.90;;;0.40;98.00;;;;;;5032102;28;20418;-73
2020/12/07 00:22:29;;;;;;;3.10;1.70;;;0.40;98.00;;;;;;5017874;28;20487;-73
2020/12/07 00:24:57;;;;;;;2.97;1.77;;;0.40;98.00;;;;;;5016915;28;20092;-72
2020/12/07 00:27:24;;;;;;;3.70;1.88;;;0.40;98.00;;;;;;5020148;28;20449;-72
2020/12/07 00:29:51;;;;;;;3.85;2.03;;;0.50;98.00;;;;;;5033638;28;20032;-73
2020/12/07 00:32:18;;;;;;;2.75;1.60;;;0.50;98.00;;;;;;5019933;28;20072;-73
2020/12/07 00:34:43;;;;;;;4.05;2.00;;;0.50;98.00;;;;;;5023561;28;20028;-73
2020/12/07 00:37:09;;;;;;;3.20;1.70;;;0.50;98.00;;;;;;5016648;28;20322;-73
2020/12/07 00:39:35;;;;;;;4.15;1.92;;;0.40;98.00;;;;;;5017025;28;20057;-72
2020/12/07 00:42:02;;;;;;;2.72;1.70;;;0.50;98.00;;;;;;5028925;28;20414;-73
2020/12/07 00:44:28;;;;;;;3.83;1.83;;;0.50;98.00;;;;;;5021657;28;20030;-72
2020/12/07 00:46:54;;;;;;;3.60;1.90;;;0.50;98.00;;;;;;5035078;28;20048;-72
2020/12/07 00:49:20;;;;;;;3.53;1.98;;;0.60;98.00;;;;;;5024958;28;20430;-72
2020/12/07 00:51:47;;;;;;;3.50;2.00;;;0.50;98.00;;;;;;5025193;28;20029;-73
2020/12/07 00:54:13;;;;;;;2.50;1.67;;;0.50;98.00;;;;;;5029480;28;20029;-72
2020/12/07 00:56:39;;;;;;;5.80;2.13;;;0.50;98.00;;;;;;5037535;28;20354;-72
2020/12/07 00:59:04;;;;;;;2.72;1.70;;;0.50;98.00;;;;;;5022466;28;20313;-72
2020/12/07 01:01:30;;;;;;;2.70;1.70;;;0.50;98.00;;;;;;5016161;28;20121;-73
2020/12/07 01:03:56;;;;;;;3.40;1.70;;;0.50;98.00;;;;;;5017386;28;20112;-72
2020/12/07 01:06:28;;;;;;;4.82;1.90;;;0.50;98.00;;;;;;5014672;28;20034;-72
2020/12/07 01:08:53;;;;;;;2.83;1.77;;;0.50;98.00;;;;;;5015973;28;20022;-73
2020/12/07 01:11:19;;;;;;;4.28;1.63;;;0.50;98.00;;;;;;5016898;28;20042;-72
2020/12/07 01:13:44;;;;;;;3.28;1.83;;;0.60;98.00;;;;;;5016767;28;20034;-73
2020/12/07 01:16:10;;;;;;;4.53;1.85;;;0.60;98.00;;;;;;5013591;28;20335;-72
2020/12/07 01:18:36;;;;;;;2.50;1.60;;;0.60;98.00;;;;;;5015947;28;20030;-72
2020/12/07 01:21:01;;;;;;;3.85;1.75;;;0.60;98.00;;;;;;5015854;28;20113;-72
2020/12/07 01:23:27;;;;;;;2.28;1.52;;;0.60;98.00;;;;;;5016800;28;20061;-73
2020/12/07 01:25:52;;;;;;;2.28;1.58;;;0.60;98.00;;;;;;5016855;28;20326;-73
2020/12/07 01:28:18;;;;;;;2.55;1.65;;;0.50;98.00;;;;;;5016426;28;20036;-73
2020/12/07 01:30:44;;;;;;;3.35;1.65;;;0.60;98.00;;;;;;5015401;28;20137;-73
2020/12/07 01:33:10;;;;;;;2.53;1.50;;;0.60;98.00;;;;;;5016185;28;20318;-72
2020/12/07 01:35:35;;;;;;;2.63;1.67;;;0.60;98.00;;;;;;5014497;28;20037;-72
2020/12/07 01:38:02;;;;;;;3.10;1.77;;;0.50;98.00;;;;;;5016743;28;20135;-72
2020/12/07 01:40:27;;;;;;;4.38;2.28;;;0.50;98.00;;;;;;5015320;28;20052;-72
2020/12/07 01:42:53;;;;;;;3.03;1.75;;;0.50;98.00;;;;;;5015525;28;20030;-72
2020/12/07 01:45:18;;;;;;;3.20;1.70;;;0.50;98.00;;;;;;5016439;28;20026;-71
2020/12/07 01:47:44;;;;;;;3.10;1.92;;;0.60;98.00;;;;;;5012801;28;20034;-71
2020/12/07 01:50:10;;;;;;;3.67;1.70;;;0.60;98.00;;;;;;5016399;28;20030;-71
2020/12/07 01:52:36;;;;;;;2.08;1.40;;;0.60;98.00;;;;;;5015313;28;20049;-71
2020/12/07 01:55:02;;;;;;;3.03;1.80;;;0.60;98.00;;;;;;5016176;28;20032;-71
2020/12/07 01:57:28;;;;;;;3.45;1.60;;;0.60;98.00;;;;;;5014699;28;20026;-70
2020/12/07 01:59:54;;;;;;;2.20;1.40;;;0.60;98.00;;;;;;5015480;28;20128;-70
2020/12/07 02:02:21;;;;;;;2.90;1.58;;;0.60;98.00;;;;;;5014570;28;20025;-70
2020/12/07 02:04:47;;;;;;;3.83;1.60;;;0.70;98.00;;;;;;5013977;28;20033;-72
2020/12/07 02:07:19;;;;;;;2.33;1.50;;;0.70;98.00;;;;;;5015881;28;20034;-72
2020/12/07 02:09:44;;;;;;;2.65;1.50;;;0.70;98.00;;;;;;5015450;28;20438;-72
2020/12/07 02:12:10;;;;;;;3.05;1.58;;;0.70;98.00;;;;;;5015294;28;20030;-71
2020/12/07 02:14:36;;;;;;;2.55;1.60;;;0.70;98.00;;;;;;5016108;28;20356;-71
2020/12/07 02:17:02;;;;;;;2.58;1.60;;;0.70;98.00;;;;;;5011116;28;20053;-71
2020/12/07 02:19:28;;;;;;;2.10;1.60;;;0.80;98.00;;;;;;5009800;28;20034;-71
2020/12/07 02:21:59;;;;;;;3.45;2.00;;;0.70;98.00;;;;;;5010672;28;20370;-72
2020/12/07 02:24:25;;;;;;;2.85;1.75;;;0.70;98.00;;;;;;5011144;28;20359;-71
2020/12/07 02:26:51;;;;;;;3.85;2.00;;;0.80;98.00;;;;;;5010594;28;20079;-72
2020/12/07 02:29:16;;;;;;;3.08;1.90;;;0.80;98.00;;;;;;5010498;28;20061;-72
2020/12/07 02:31:42;;;;;;;2.13;1.50;;;0.70;98.00;;;;;;5009417;28;20044;-73
2020/12/07 02:34:08;;;;;;;2.35;1.40;;;0.70;98.00;;;;;;5010236;28;20030;-73
2020/12/07 02:36:33;;;;;;;3.13;1.60;;;0.80;98.00;;;;;;5011505;28;20030;-73
2020/12/07 02:38:59;;;;;;;2.80;1.77;;;0.80;98.00;;;;;;5012067;28;20069;-73
2020/12/07 02:41:25;;;;;;;2.55;1.40;;;0.70;98.00;;;;;;5013727;28;20041;-73
2020/12/07 02:43:50;;;;;;;2.58;1.45;;;0.70;98.00;;;;;;5012747;28;20087;-73
2020/12/07 02:46:16;;;;;;;2.53;1.73;;;0.80;98.00;;;;;;5011351;28;20033;-73
2020/12/07 02:48:42;;;;;;;2.17;1.40;;;0.80;98.00;;;;;;5015264;28;20104;-73
2020/12/07 02:51:07;;;;;;;2.38;1.58;;;0.80;98.00;;;;;;5015396;28;20315;-73
2020/12/07 02:53:36;;;;;;;2.50;1.70;;;0.80;98.00;;;;;;5013939;28;20037;-72
2020/12/07 02:56:02;;;;;;;2.88;1.90;;;0.80;98.00;;;;;;5013295;28;20029;-71
2020/12/07 02:58:27;;;;;;;3.40;1.52;;;0.80;98.00;;;;;;5013799;28;20034;-73
2020/12/07 03:00:53;;;;;;;2.63;1.60;;;0.70;98.00;;;;;;5013666;28;20729;-73
2020/12/07 03:03:18;;;;;;;1.98;1.40;;;0.80;98.00;;;;;;5014767;28;20080;-73
2020/12/07 03:05:44;;;;;;;2.97;1.77;;;0.80;98.00;;;;;;5014385;28;20076;-73
2020/12/07 03:08:10;;;;;;;2.20;1.60;;;0.80;98.00;;;;;;5014115;28;20018;-73
2020/12/07 03:10:35;;;;;;;3.08;1.98;;;0.80;98.00;;;;;;5014215;28;20030;-73
2020/12/07 03:13:01;;;;;;;2.45;1.50;;;0.80;98.00;;;;;;5013931;28;20053;-72
2020/12/07 03:15:26;;;;;;;3.75;1.90;;;0.90;98.00;;;;;;5014252;28;20058;-72
2020/12/07 03:17:52;;;;;;;3.03;1.50;;;0.90;98.00;;;;;;5011259;28;20034;-73
2020/12/07 03:20:18;;;;;;;3.78;1.80;;;0.90;98.00;;;;;;5015117;28;20415;-72
2020/12/07 03:22:43;;;;;;;2.80;1.60;;;0.90;98.00;;;;;;5013501;28;20036;-72
2020/12/07 03:25:09;;;;;;;3.95;1.88;;;0.90;98.00;;;;;;5012656;28;20129;-72
2020/12/07 03:27:35;;;;;;;2.53;1.58;;;0.90;98.00;;;;;;5013514;28;20026;-72
2020/12/07 03:30:00;;;;;;;2.30;1.50;;;0.90;98.00;;;;;;5014925;28;20033;-72
2020/12/07 03:32:26;;;;;;;2.08;1.40;;;0.90;98.00;;;;;;5013183;28;20084;-72
2020/12/07 03:34:51;;;;;;;2.35;1.52;;;0.80;98.00;;;;;;5014098;28;20030;-72
2020/12/07 03:37:17;;;;;;;1.88;1.30;;;0.80;98.00;;;;;;5013722;28;20085;-73
2020/12/07 03:39:43;;;;;;;2.63;1.40;;;0.80;98.00;;;;;;5015277;28;20318;-72
2020/12/07 03:42:08;;;;;;;2.17;1.48;;;0.90;98.00;;;;;;5013801;28;20411;-72
2020/12/07 03:44:34;;;;;;;2.63;1.55;;;0.80;98.00;;;;;;5014374;28;20331;-72
2020/12/07 03:47:00;;;;;;;1.70;1.20;;;0.80;98.00;;;;;;5012881;28;20473;-72
2020/12/07 03:49:26;;;;;;;4.57;1.42;;;0.90;98.00;;;;;;5015123;28;20033;-72
2020/12/07 03:51:51;;;;;;;1.75;1.33;;;0.90;98.00;;;;;;5012046;28;20033;-72
2020/12/07 03:54:17;;;;;;;3.15;1.50;;;0.90;98.00;;;;;;5012996;28;20038;-72
2020/12/07 03:56:42;;;;;;;4.93;2.45;;;0.80;98.00;;;;;;5014145;28;20074;-72
2020/12/07 03:59:08;;;;;;;3.40;1.85;;;0.90;98.00;;;;;;5014790;28;20411;-72
2020/12/07 04:01:36;;;;;;;3.28;1.55;;;1.10;98.00;;;;;;5012684;28;20030;-72
2020/12/07 04:04:05;;;;;;;2.00;1.35;;;1.20;98.00;;;;;;5013715;28;20022;-72
2020/12/07 04:06:34;;;;;;;2.70;1.40;;;1.20;98.00;;;;;;5013349;28;20019;-73
2020/12/07 04:09:00;;;;;;;2.60;1.30;;;1.10;98.00;;;;;;5008951;28;20037;-73
2020/12/07 04:11:26;;;;;;;1.80;1.20;;;1.10;98.00;;;;;;5017577;28;20037;-72
2020/12/07 04:13:51;;;;;;;2.90;1.45;;;1.00;98.00;;;;;;5017503;28;20025;-72
2020/12/07 04:16:17;;;;;;;2.10;1.38;;;1.00;98.00;;;;;;5016499;28;20030;-73
2020/12/07 04:18:43;;;;;;;1.75;1.20;;;1.00;98.00;;;;;;5018028;28;20025;-72
2020/12/07 04:21:08;;;;;;;2.00;1.40;;;1.00;98.00;;;;;;5017134;28;20033;-72
2020/12/07 04:23:34;;;;;;;1.95;1.33;;;0.90;98.00;;;;;;5016845;28;20018;-71
2020/12/07 04:26:00;;;;;;;1.60;1.20;;;0.90;98.00;;;;;;5017972;28;20030;-72
2020/12/07 04:28:26;;;;;;;2.33;1.42;;;0.90;98.00;;;;;;5018003;28;20161;-72
2020/12/07 04:30:52;;;;;;;3.75;1.70;;;0.80;98.00;;;;;;5016604;28;20037;-72
2020/12/07 04:33:18;;;;;;;5.32;3.20;;;0.80;98.00;;;;;;5016531;28;20030;-71
2020/12/07 04:35:45;;;;;;;2.67;1.55;;;0.90;98.00;;;;;;5017952;28;20045;-72
2020/12/07 04:38:11;;;;;;;2.85;1.60;;;0.90;98.00;;;;;;5017351;28;20026;-71
2020/12/07 04:40:37;;;;;;;2.42;1.50;;;0.90;98.00;;;;;;5017867;28;20033;-71
2020/12/07 04:43:03;;;;;;;2.15;1.50;;;0.90;98.00;;;;;;5015184;28;20033;-71
2020/12/07 04:45:30;;;;;;;4.35;1.50;;;0.90;98.00;;;;;;5017493;28;20022;-71
2020/12/07 04:47:58;;;;;;;3.47;1.58;;;1.00;98.00;;;;;;5015917;28;20077;-70
2020/12/07 04:50:29;;;;;;;3.38;1.90;;;1.10;98.00;;;;;;5014539;28;20072;-70
2020/12/07 04:52:56;;;;;;;2.78;1.75;;;1.10;98.00;;;;;;5015158;28;20038;-70
2020/12/07 04:55:22;;;;;;;4.78;1.92;;;1.10;98.00;;;;;;5016265;28;20030;-69
2020/12/07 04:57:49;;;;;;;2.92;1.80;;;1.10;98.00;;;;;;5016330;28;20055;-69
2020/12/07 05:00:15;;;;;;;3.33;1.58;;;1.10;98.00;;;;;;5011518;28;20088;-70
2020/12/07 05:02:41;;;;;;;2.97;1.65;;;1.10;98.00;;;;;;5014715;28;20362;-71
2020/12/07 05:05:07;;;;;;;2.83;1.73;;;1.10;98.00;;;;;;5014572;28;20030;-71
2020/12/07 05:07:34;;;;;;;2.75;1.67;;;1.00;98.00;;;;;;5016738;28;20118;-71
2020/12/07 05:10:09;;;;;;;2.63;1.70;;;0.90;98.00;;;;;;5016317;28;20033;-70
2020/12/07 05:12:40;;;;;;;2.40;1.50;;;0.90;98.00;;;;;;5016676;28;20330;-70
2020/12/07 05:15:10;;;;;;;2.67;1.60;;;0.80;98.00;;;;;;5014121;28;20033;-71
2020/12/07 05:17:37;;;;;;;2.50;1.65;;;0.80;98.00;;;;;;5014902;28;20045;-70
2020/12/07 05:20:06;;;;;;;2.70;1.60;;;0.70;98.00;;;;;;5014370;28;20029;-70
2020/12/07 05:22:36;;;;;;;3.22;1.67;;;0.60;98.00;;;;;;5016511;28;20064;-70
2020/12/07 05:25:07;;;;;;;2.85;1.50;;;0.60;98.00;;;;;;5014296;28;20049;-71
2020/12/07 05:27:35;;;;;;;3.33;1.88;;;0.50;98.00;;;;;;5016111;28;20015;-70
2020/12/07 05:30:30;;;;;;;1.92;1.40;;;0.50;98.00;;;;;;5014029;28;20029;-70
2020/12/07 05:32:52;;;;;;;2.30;1.40;;;0.50;98.00;;;;;;5014688;28;20041;-70
2020/12/07 05:35:18;;;;;;;3.80;2.20;;;0.40;98.00;;;;;;5014270;28;20022;-70
2020/12/07 05:37:44;;;;;;;8.00;3.50;;;0.50;98.00;;;;;;5016833;28;20022;-71
2020/12/07 05:40:12;;;;;;;4.95;2.88;;;0.40;98.00;;;;;;5014707;28;20036;-71
2020/12/07 05:42:38;;;;;;;4.95;2.85;;;0.50;98.00;;;;;;5031519;28;20080;-71
2020/12/07 05:45:05;;;;;;;3.38;1.98;;;0.50;98.00;;;;;;5016263;28;20399;-71
2020/12/07 05:47:33;;;;;;;3.30;1.90;;;0.40;98.00;;;;;;5012924;28;20328;-71
2020/12/07 05:50:01;;;;;;;3.40;2.10;;;0.30;98.00;;;;;;5015700;28;20014;-71
2020/12/07 05:52:59;;;;;;;5.85;3.75;;;0.30;98.00;;;;;;5012456;28;20499;-72
2020/12/07 05:55:25;;;;;;;5.40;3.10;;;0.30;98.00;;;;;;5015836;28;20037;-71
2020/12/07 05:57:56;;;;;;;4.05;2.60;;;0.20;98.00;;;;;;5016171;28;20030;-72
2020/12/07 06:00:29;;;;;;;3.88;2.40;;;0.20;98.00;;;;;;5011646;28;20510;-71
2020/12/07 06:02:55;;;;;;;3.00;1.92;;;0.20;98.00;;;;;;5013095;28;20141;-71
2020/12/07 06:05:22;;;;;;;3.85;2.15;;;0.30;98.00;;;;;;5026008;28;20124;-72
2020/12/07 06:08:08;;;;;;;3.20;2.10;;;0.20;98.00;;;;;;5013968;28;20029;-72
2020/12/07 06:10:40;;;;;;;3.60;2.20;;;0.20;98.00;;;;;;5014261;28;20292;-72
2020/12/07 06:13:12;;;;;;;3.65;2.22;;;0.10;98.00;;;;;;5015386;28;20030;-72
2020/12/07 06:15:43;;;;;;;3.20;1.60;;;0.20;98.00;;;;;;5012787;28;20030;-72
2020/12/07 06:18:27;;;;;;;2.80;1.77;;;0.20;98.00;;;;;;5016010;28;20113;-72
2020/12/07 06:21:17;;;;;;;2.23;1.53;;;0.10;98.00;;;;;;5016323;28;20045;-72
2020/12/07 06:23:45;;;;;;;4.65;1.92;;;0.00;98.00;;;;;;5015243;28;20034;-72
2020/12/07 06:26:13;;;;;;;3.83;2.33;;;0.00;98.00;;;;;;5015422;28;20024;-72
2020/12/07 06:28:43;;;;;;;2.72;1.73;;;0.00;98.00;;;;;;5015627;28;20029;-72
2020/12/07 06:31:20;;;;;;;3.30;2.10;;;0.00;98.00;;;;;;5014330;28;20029;-72
2020/12/07 06:33:53;;;;;;;3.80;1.90;;;-0.10;98.00;;;;;;5015326;28;20057;-72
2020/12/07 06:36:31;;;;;;;3.53;2.03;;;-0.10;98.00;;;;;;5015680;28;20026;-72
2020/12/07 06:38:58;;;;;;;20.77;11.57;;;-0.10;98.00;;;;;;5015926;28;20017;-72
2020/12/07 06:41:38;;;;;;;4.47;2.65;;;-0.10;98.00;;;;;;5015322;28;20331;-72
2020/12/07 06:44:21;;;;;;;3.45;2.15;;;-0.10;98.00;;;;;;5014802;28;20088;-72
2020/12/07 06:49:49;;;;;;;4.53;2.53;;;-0.10;98.00;;;;;;5015591;28;20107;-72
2020/12/07 06:52:18;;;;;;;3.55;2.40;;;-0.10;98.00;;;;;;5015354;28;20038;-72
2020/12/07 06:57:32;;;;;;;6.82;3.88;;;0.00;98.00;;;;;;5002378;28;20040;-72
2020/12/07 07:00:05;;;;;;;5.78;4.13;;;0.00;98.00;;;;;;5015346;28;20024;-72
2020/12/07 07:02:31;;;;;;;4.67;2.80;;;-0.10;98.00;;;;;;5012944;28;20025;-71
2020/12/07 07:04:59;;;;;;;3.97;2.33;;;-0.10;98.00;;;;;;5014200;28;20291;-71
2020/12/07 07:07:27;;;;;;;6.22;3.75;;;-0.20;98.00;;;;;;4999964;28;20101;-71
2020/12/07 07:09:53;;;;;;;3.97;2.60;;;-0.20;98.00;;;;;;5004472;28;20027;-71
2020/12/07 07:12:20;;;;;;;9.32;4.47;;;-0.20;98.00;;;;;;5015131;28;20033;-71
2020/12/07 07:14:48;;;;;;;5.28;3.30;;;-0.20;98.00;;;;;;5015335;28;20076;-71
2020/12/07 07:17:17;;;;;;;4.57;2.50;;;-0.20;98.00;;;;;;5013635;28;20393;-71
2020/12/07 07:19:43;;;;;;;6.00;4.53;;;-0.20;98.00;;;;;;5015301;28;20021;-71
2020/12/07 07:22:09;;;;;;;4.25;3.08;;;-0.10;98.00;;;;;;5015048;28;20017;-71
2020/12/07 07:24:43;;;;;;;3.78;2.30;;;-0.10;98.00;;;;;;5014436;28;20418;-71
2020/12/07 07:29:54;;;;;;;4.22;2.33;;;0.00;98.00;;;;;;4995748;28;20037;-70
2020/12/07 07:32:23;;;;;;;4.70;2.95;;;0.00;98.00;;;;;;5008880;28;20407;-71
2020/12/07 07:34:49;;;;;;;4.38;2.85;;;0.10;98.00;;;;;;5014939;28;20030;-70
2020/12/07 07:37:17;;;;;;;4.30;2.60;;;0.00;98.00;;;;;;5014892;28;20498;-70
2020/12/07 07:39:48;;;;;;;5.30;2.42;;;-0.10;98.00;;;;;;5015104;28;20076;-70
2020/12/07 07:42:16;;;;;;;4.10;2.70;;;0.00;98.00;;;;;;5015623;28;20025;-70
2020/12/07 07:44:46;;;;;;;4.18;2.58;;;-0.10;98.00;;;;;;5016047;28;20088;-70
2020/12/07 07:47:20;;;;;;;3.95;2.70;;;-0.10;98.00;;;;;;5016370;28;20028;-70
2020/12/07 07:57:46;;;;;;;3.55;2.63;;;0.00;98.00;;;;;;5018641;28;20054;-71
2020/12/07 08:17:13;;;;;;;4.82;2.92;;;0.00;98.00;;;;;;5017063;28;20037;-70
2020/12/07 08:19:38;;;;;;;5.35;3.35;;;0.10;98.00;;;;;;5017399;28;20034;-70
2020/12/07 08:22:14;;;;;;;4.57;3.10;;;0.10;98.00;;;;;;5018191;28;20029;-70
2020/12/07 08:25:09;;;;;;;29.48;18.10;;;0.20;98.00;;;;;;4998733;28;20388;-70
2020/12/07 08:27:36;;;;;;;6.03;4.07;;;0.40;98.00;;;;;;5017627;28;20511;-71
2020/12/07 08:30:08;;;;;;;4.90;2.85;;;0.80;98.00;;;;;;5017053;28;20022;-71
2020/12/07 08:32:34;;;;;;;5.22;3.17;;;1.50;98.00;;;;;;5005930;28;20045;-71
2020/12/07 08:35:10;;;;;;;4.68;3.10;;;1.70;98.00;;;;;;4998605;28;20026;-71
2020/12/07 08:37:45;;;;;;;9.25;2.70;;;2.00;98.00;;;;;;4999719;28;20049;-72
2020/12/07 08:40:11;;;;;;;8.55;2.70;;;2.80;98.00;;;;;;5000090;28;20026;-71
2020/12/07 08:42:37;;;;;;;4.60;2.42;;;3.40;98.00;;;;;;5018104;28;20084;-71
2020/12/07 08:45:04;;;;;;;4.18;2.55;;;3.90;96.70;;;;;;5017840;28;20022;-71
2020/12/07 08:47:30;;;;;;;4.97;2.38;;;4.20;94.90;;;;;;5016414;28;20148;-71
2020/12/07 08:49:55;;;;;;;4.25;2.50;;;4.30;93.70;;;;;;5017959;28;20465;-71
2020/12/07 08:52:21;;;;;;;4.03;2.22;;;4.50;92.60;;;;;;5016685;28;20041;-71
2020/12/07 08:54:46;;;;;;;5.60;3.28;;;4.40;92.70;;;;;;5017857;28;20030;-71
2020/12/07 08:57:12;;;;;;;6.35;3.70;;;4.20;93.20;;;;;;5017606;28;20369;-71
2020/12/07 08:59:38;;;;;;;6.30;3.70;;;4.20;93.70;;;;;;5017627;28;20030;-71
2020/12/07 09:02:03;;;;;;;5.43;2.90;;;4.00;94.10;;;;;;5014618;28;20052;-70
2020/12/07 09:04:29;;;;;;;6.40;3.90;;;4.60;92.90;;;;;;5016748;28;20018;-71
2020/12/07 09:06:55;;;;;;;9.40;5.70;;;4.80;92.90;;;;;;5009337;28;20363;-71
2020/12/07 09:09:20;;;;;;;6.43;4.22;;;4.70;92.70;;;;;;4996911;28;20025;-71
2020/12/07 09:11:46;;;;;;;5.18;3.13;;;5.00;92.40;;;;;;5012264;28;20434;-71
2020/12/07 09:14:13;;;;;;;4.47;2.45;;;5.30;91.20;;;;;;5003928;28;20042;-71
2020/12/07 09:16:38;;;;;;;4.45;2.80;;;5.30;90.40;;;;;;5009172;28;20029;-72
2020/12/07 09:19:04;;;;;;;4.32;2.50;;;5.60;89.90;;;;;;5017516;28;20041;-71
2020/12/07 09:21:29;;;;;;;4.30;2.78;;;5.20;90.10;;;;;;5016407;28;20038;-71
2020/12/07 09:23:55;;;;;;;4.80;2.88;;;5.40;90.30;;;;;;5011118;28;20105;-71
2020/12/07 09:26:21;;;;;;;4.72;2.28;;;5.30;89.30;;;;;;4997733;28;20030;-72
2020/12/07 09:28:46;;;;;;;5.00;2.70;;;5.10;91.10;;;;;;5010088;28;20026;-72
2020/12/07 09:31:15;;;;;;;4.00;2.42;;;5.20;91.50;;;;;;5016030;28;20025;-72
2020/12/07 09:33:41;;;;;;;4.38;2.40;;;5.10;91.50;;;;;;5017046;28;20033;-73
2020/12/07 09:36:06;;;;;;;5.65;3.17;;;4.90;91.40;;;;;;5016850;28;20033;-75
2020/12/07 09:38:33;;;;;;;9.88;4.88;;;4.80;92.10;;;;;;4998419;28;20033;-71
2020/12/07 09:40:58;;;;;;;4.43;2.65;;;4.70;92.30;;;;;;5000210;28;20383;-70
2020/12/07 09:43:24;;;;;;;4.30;2.70;;;4.50;92.70;;;;;;5016612;28;20054;-71
2020/12/07 09:45:52;;;;;;;3.72;2.58;;;4.50;93.20;;;;;;5007257;28;20041;-70
2020/12/07 09:48:18;;;;;;;5.20;3.00;;;4.60;92.60;;;;;;5016713;28;20046;-70
2020/12/07 09:50:44;;;;;;;4.35;2.50;;;4.50;93.50;;;;;;5016796;28;20561;-70
2020/12/07 09:53:11;;;;;;;5.20;2.72;;;5.00;93.00;;;;;;5016473;28;20030;-70
2020/12/07 09:55:37;;;;;;;5.05;2.15;;;5.50;91.30;;;;;;5016576;28;20322;-70
2020/12/07 09:58:03;;;;;;;3.63;2.20;;;6.00;89.80;;;;;;5016215;28;20091;-70
2020/12/07 10:00:32;;;;;;;3.83;2.28;;;6.40;88.80;;;;;;5015215;28;20037;-70
2020/12/07 10:02:58;;;;;;;4.22;2.40;;;6.70;87.10;;;;;;5016006;28;20033;-70
2020/12/07 10:05:24;;;;;;;4.40;2.15;;;6.70;86.10;;;;;;5016289;28;20052;-70
2020/12/07 10:07:50;;;;;;;4.75;2.55;;;6.80;87.60;;;;;;5015883;28;20030;-71
2020/12/07 10:10:16;;;;;;;3.75;2.13;;;7.70;84.70;;;;;;5016045;28;20030;-71
2020/12/07 10:12:41;;;;;;;4.05;2.20;;;7.80;83.90;;;;;;5016346;28;20433;-71
2020/12/07 10:15:07;;;;;;;4.47;2.40;;;8.10;82.90;;;;;;5015544;28;20034;-71
2020/12/07 10:17:34;;;;;;;4.85;2.40;;;8.10;82.20;;;;;;5015124;28;20026;-71
2020/12/07 10:19:59;;;;;;;3.22;1.80;;;8.40;82.80;;;;;;5016098;28;20022;-71
2020/12/07 10:22:25;;;;;;;3.03;1.60;;;9.40;79.80;;;;;;5015014;28;20349;-71
2020/12/07 10:24:51;;;;;;;2.67;1.50;;;9.70;78.60;;;;;;5013863;28;20089;-71
2020/12/07 10:27:16;;;;;;;3.40;1.80;;;9.70;79.10;;;;;;5015815;28;20029;-70
2020/12/07 10:29:42;;;;;;;2.83;1.40;;;10.00;77.30;;;;;;5016181;28;20022;-70
2020/12/07 10:32:14;;;;;;;3.42;1.50;;;10.30;76.20;;;;;;5014835;28;20358;-71
2020/12/07 10:34:42;;;;;;;2.33;1.38;;;10.60;75.10;;;;;;5016064;28;20026;-71
2020/12/07 10:37:12;;;;;;;2.70;1.40;;;11.40;73.50;;;;;;5015838;28;20361;-71
2020/12/07 10:39:38;;;;;;;2.35;1.33;;;11.80;72.40;;;;;;5015820;28;20021;-71
2020/12/07 10:42:03;;;;;;;2.47;1.20;;;11.90;72.20;;;;;;5014884;28;20489;-70
2020/12/07 10:44:32;;;;;;;2.95;1.40;;;12.60;70.10;;;;;;5016125;28;20034;-70
2020/12/07 10:46:57;;;;;;;2.83;1.17;;;12.70;69.20;;;;;;4997754;28;20022;-71
2020/12/07 10:49:23;;;;;;;2.53;1.10;;;13.00;70.50;;;;;;4995171;28;20037;-72
2020/12/07 10:51:49;;;;;;;1.80;1.00;;;13.30;68.80;;;;;;5009903;28;20029;-71
2020/12/07 10:54:14;;;;;;;5.15;1.50;;;13.80;67.20;;;;;;5015203;28;20064;-71
2020/12/07 10:56:44;;;;;;;2.72;1.40;;;13.40;67.00;;;;;;5015698;28;20058;-71
2020/12/07 10:59:09;;;;;;;3.38;1.58;;;11.50;70.10;;;;;;5024973;28;20025;-71
2020/12/07 11:01:35;;;;;;;3.15;1.42;;;11.10;72.50;;;;;;5014439;28;20076;-72
2020/12/07 11:04:01;;;;;;;3.97;1.70;;;10.60;73.70;;;;;;5014636;28;20405;-71
2020/12/07 11:06:32;;;;;;;2.72;1.45;;;9.70;75.90;;;;;;5015626;28;20075;-71
2020/12/07 11:08:59;;;;;;;2.25;1.20;;;9.70;76.80;;;;;;5015255;28;20018;-71
2020/12/07 11:11:25;;;;;;;1.80;1.00;;;10.90;75.80;;;;;;5015383;28;20033;-71
2020/12/07 11:13:51;;;;;;;3.13;1.65;;;11.70;72.50;;;;;;5013469;28;20030;-71
2020/12/07 11:16:22;;;;;;;2.30;1.10;;;11.00;72.90;;;;;;5013874;28;20018;-71
2020/12/07 11:18:47;;;;;;;2.45;1.30;;;10.90;74.00;;;;;;5015206;28;20032;-71
2020/12/07 11:21:16;;;;;;;3.83;1.30;;;10.30;74.80;;;;;;4998391;28;20030;-71
2020/12/07 11:23:44;;;;;;;2.38;1.33;;;9.60;76.60;;;;;;5013590;28;20025;-72
2020/12/07 11:26:11;;;;;;;3.53;1.60;;;9.20;77.80;;;;;;5014288;28;20018;-72
2020/12/07 11:28:38;;;;;;;2.95;1.60;;;8.40;79.90;;;;;;5014084;28;20113;-71
2020/12/07 11:31:08;;;;;;;2.72;1.73;;;7.90;80.90;;;;;;5014186;28;20278;-71
2020/12/07 11:33:36;;;;;;;3.45;1.88;;;7.40;82.90;;;;;;5014277;28;20494;-71
2020/12/07 11:36:03;;;;;;;3.15;1.90;;;6.90;84.20;;;;;;5015319;28;20053;-71
2020/12/07 11:46:17;;;;;;;6.53;3.30;;;4.50;91.70;;;;;;5001223;28;20026;-71
2020/12/07 11:48:43;;;;;;;5.53;3.53;;;4.20;93.70;;;;;;5011722;28;20045;-71
2020/12/07 11:51:11;;;;;;;6.47;3.75;;;4.10;94.60;;;;;;5013986;28;20419;-71
2020/12/07 11:53:37;;;;;;;5.82;3.72;;;4.00;94.40;;;;;;5013839;28;20029;-71
2020/12/07 11:56:03;;;;;;;6.28;3.92;;;3.90;95.30;;;;;;5005692;28;20019;-72
2020/12/07 11:58:28;;;;;;;7.00;3.92;;;3.70;95.80;;;;;;4995506;28;20028;-71
2020/12/07 12:00:54;;;;;;;6.25;3.97;;;3.50;95.90;;;;;;5004369;28;20049;-72
2020/12/07 12:03:19;;;;;;;6.15;4.20;;;3.40;96.80;;;;;;5013566;28;20030;-71
2020/12/07 12:05:45;;;;;;;6.53;4.05;;;3.10;96.90;;;;;;4995825;28;20415;-71
2020/12/07 12:08:10;;;;;;;12.38;5.07;;;2.80;96.90;;;;;;4996236;28;20071;-72
2020/12/07 12:10:36;;;;;;;5.82;3.67;;;2.90;97.60;;;;;;5011962;28;20101;-72
2020/12/07 12:13:02;;;;;;;7.63;4.90;;;3.00;97.90;;;;;;5013853;28;20033;-72
2020/12/07 12:15:27;;;;;;;5.70;4.05;;;3.20;97.00;;;;;;5014587;28;20469;-72
2020/12/07 12:17:53;;;;;;;5.72;3.65;;;3.20;97.00;;;;;;5013126;28;20038;-71
2020/12/07 12:20:18;;;;;;;6.30;3.83;;;3.20;96.90;;;;;;5013752;28;20037;-72
2020/12/07 12:22:47;;;;;;;6.25;3.75;;;3.40;96.90;;;;;;5014492;28;20030;-72
2020/12/07 12:25:13;;;;;;;5.82;3.75;;;3.40;96.50;;;;;;5014779;28;20431;-72
2020/12/07 12:27:38;;;;;;;6.72;4.15;;;3.40;96.10;;;;;;5014648;28;20025;-72
2020/12/07 12:30:04;;;;;;;8.55;4.85;;;3.40;96.50;;;;;;5018210;28;20018;-72
2020/12/07 12:32:29;;;;;;;8.35;4.65;;;3.70;96.20;;;;;;5017096;28;20072;-72
2020/12/07 12:34:55;;;;;;;7.18;4.13;;;3.70;95.10;;;;;;5017936;28;20040;-72
2020/12/07 12:37:21;;;;;;;6.53;4.10;;;3.80;95.10;;;;;;5017894;28;20026;-72
2020/12/07 12:39:49;;;;;;;6.55;4.25;;;3.90;94.50;;;;;;5017346;28;20423;-72
2020/12/07 12:42:18;;;;;;;7.65;4.40;;;3.90;94.10;;;;;;5011523;28;20030;-72
2020/12/07 12:44:43;;;;;;;7.38;4.80;;;3.80;94.50;;;;;;4998581;28;20426;-72
2020/12/07 12:47:09;;;;;;;7.70;4.65;;;3.30;95.30;;;;;;5002839;28;20029;-72
2020/12/07 12:49:37;;;;;;;7.70;4.57;;;3.00;96.00;;;;;;5017878;28;20037;-71
2020/12/07 12:52:03;;;;;;;7.05;4.25;;;3.00;96.50;;;;;;5015251;28;20087;-72
2020/12/07 12:54:28;;;;;;;7.82;5.00;;;3.20;97.20;;;;;;5018014;28;20026;-72
2020/12/07 12:56:54;;;;;;;7.38;4.30;;;3.50;95.50;;;;;;5017542;28;20033;-72
2020/12/07 12:59:20;;;;;;;6.85;4.20;;;3.60;95.50;;;;;;5017696;28;20272;-72
2020/12/07 13:01:45;;;;;;;6.93;4.43;;;3.70;93.80;;;;;;5016353;28;20030;-72
2020/12/07 13:04:11;;;;;;;8.63;4.53;;;3.60;94.70;;;;;;5017540;28;20032;-72
2020/12/07 13:06:37;;;;;;;7.63;4.78;;;3.70;94.50;;;;;;5017236;28;20033;-72
2020/12/07 13:09:04;;;;;;;7.82;5.10;;;3.60;94.50;;;;;;5010662;28;20022;-72
2020/12/07 13:11:36;;;;;;;7.95;4.80;;;3.50;95.60;;;;;;4996767;28;20038;-72
2020/12/07 13:14:03;;;;;;;7.65;4.80;;;3.40;95.50;;;;;;5005014;28;20079;-72
2020/12/07 13:16:48;;;;;;;8.38;5.40;;;3.30;95.10;;;;;;5016371;28;20040;-72
2020/12/07 13:19:15;;;;;;;8.80;4.85;;;3.30;95.90;;;;;;5015843;28;20540;-72
2020/12/07 13:21:49;;;;;;;8.13;5.05;;;3.50;96.20;;;;;;5017249;28;20026;-72
2020/12/07 13:24:28;;;;;;;;;;;3.10;95.50;;;;;;5017592;28;20022;-72
2020/12/07 13:29:32;;;;;;;9.48;5.63;;;2.40;97.10;;;;;;5002385;28;20114;-72
2020/12/07 13:31:57;;;;;;;9.02;5.50;;;2.00;97.80;;;;;;4998683;28;20324;-72
2020/12/07 13:34:23;;;;;;;8.77;5.65;;;2.00;98.00;;;;;;4998048;28;20038;-72
2020/12/07 13:36:55;;;;;;;7.20;4.60;;;2.00;98.00;;;;;;4997521;28;20030;-71
2020/12/07 13:39:20;;;;;;;9.40;5.43;;;2.00;98.00;;;;;;5010521;28;20108;-71